Monday, July 23, 2018, 11:32 AM EDT
Back to Local

KISP, Islip Long Island Mac Art

Location: Ronkonkoma, NY, United States Lat: 40.8
Local Time: 11:32 AM EDT (15:32 GMT) Lon: -73.1
Time Zone: US/Eastern Elev: 98 ft

Show me the last for .
Show Decoded

2018-07-23 10:56 METAR KISP 231456Z 16018G24KT 10SM SCT008 BKN020 BKN100 OVC250 26/23 A3015 RMK
                 AO2 RAE25 SLP207 BKN020 V SCT P0000 60004 T02610228 51009 =
2018-07-23 10:52 METAR KISP 231452Z 15014G24KT 10SM SCT008 BKN020 BKN100 OVC250 26/23 A3015 RMK
                 AO2 RAE25 BKN020 V SCT P0000 =
2018-07-23 10:26 METAR KISP 231426Z 16015KT 10SM FEW007 FEW026 BKN065 OVC250 26/23 A3014 RMK AO2
                 RAE25 P0000 T02610233 =
2018-07-23 09:56 METAR KISP 231356Z 16015G22KT 10SM -RA FEW007 BKN026 OVC065 24/23 A3013 RMK AO2
                 RAB00E21B55 SLP202 P0000 T02440233 =
2018-07-23 09:22 METAR KISP 231322Z 15014KT 10SM FEW007 BKN043 OVC250 24/23 A3012 RMK AO2
                 RAB00E21 P0000 T02390228 =
2018-07-23 08:56 METAR KISP 231256Z 15015G22KT 9SM BKN007 BKN047 BKN110 OVC250 24/23 A3012 RMK
                 AO2 RAE40 SLP198 P0004 T02390233 =
2018-07-23 07:56 METAR KISP 231156Z 14014G19KT 4SM -RA BR BKN008 OVC019 24/23 A3010 RMK AO2 RAB19
                 SLP190 P0000 60000 70021 T02390233 10239 20233 51012 =
2018-07-23 06:56 METAR KISP 231056Z 13014KT 10SM BKN008 BKN016 BKN037 OVC250 24/23 A3009 RMK AO2
                 SLP189 T02390233 =
2018-07-23 05:56 METAR KISP 230956Z 13012KT 9SM BKN008 BKN025 BKN085 BKN250 24/23 A3007 RMK AO2
                 SLP182 T02390233 =
2018-07-23 04:56 METAR KISP 230856Z AUTO 14011KT 9SM BKN007 BKN018 OVC027 24/23 A3006 RMK AO2
                 SLP179 T02390233 53001 =
2018-07-23 03:56 METAR KISP 230756Z AUTO 13014KT 8SM OVC007 23/23 A3005 RMK AO2 SLP175 T02330233
                 =
2018-07-23 02:56 METAR KISP 230656Z AUTO 13011KT 8SM BKN007 OVC016 24/23 A3005 RMK AO2 SLP176
                 T02390233 =
2018-07-23 01:56 METAR KISP 230556Z AUTO 14014KT 9SM BKN007 OVC070 24/24 A3006 RMK AO2 SLP178
                 60008 T02390239 10244 20233 50000 =
2018-07-23 00:56 METAR KISP 230456Z AUTO 14012KT 9SM BKN008 BKN017 OVC095 24/24 A3007 RMK AO2
                 SLP181 T02390239 402720217 =
2018-07-23 00:07 METAR KISP 230407Z AUTO 14012KT 10SM BKN009 BKN070 OVC090 23/23 A3007 RMK AO2
                 T02330233 =
2018-07-22 23:56 METAR KISP 230356Z 13010KT 10SM FEW009 SCT032 OVC065 24/23 A3006 RMK AO2 SLP179
                 LAST T02390233 =
2018-07-22 23:51 METAR KISP 230351Z 13011KT 10SM FEW009 SCT029 OVC065 24/23 A3006 RMK AO2 =
2018-07-22 22:56 METAR KISP 230256Z 15014KT 10SM SCT007 BKN019 OVC047 24/23 A3005 RMK AO2 RAE27
                 SLP175 P0004 60008 T02390228 51011 =
2018-07-22 22:20 METAR KISP 230220Z 16014G20KT 3SM -RA BR BKN007 BKN019 OVC027 24/23 A3004 RMK
                 AO2 P0004 T02390233 =
2018-07-22 21:56 METAR KISP 230156Z 15014KT 1SM R06/6000VP6000FT RA BR BKN007 BKN019 OVC027 23/23
                 A3005 RMK AO2 RAB52 SLP174 P0004 T02330228 =
2018-07-22 20:56 METAR KISP 230056Z 12011KT 3SM BR BKN005 OVC016 23/23 A3003 RMK AO2 RAE15 SLP168
                 P0000 T02330233 =
2018-07-22 19:56 METAR KISP 222356Z 12011KT 3SM -RA BR BKN005 OVC029 23/23 A3002 RMK AO2
                 RAB00E26B46 SLP165 P0001 60013 T02330233 10272 20233 53003 =
2018-07-22 19:30 METAR KISP 222330Z 13011KT 5SM BR BKN005 OVC029 23/23 A3002 RMK AO2 RAB00E26
                 P0000 T02330233 =
2018-07-22 18:56 METAR KISP 222256Z 13012KT 2SM BR BKN005 BKN015 OVC033 23/23 A3002 RMK AO2 PK
                 WND 13026/2202 RAE55 SLP164 P0011 T02330233 =
2018-07-22 18:29 METAR KISP 222229Z 14011G21KT 2SM R06/4000VP6000FT RA BR BKN005 BKN042 OVC060
                 23/23 A3001 RMK AO2 PK WND 13026/2202 P0002 T02330233 =
2018-07-22 17:56 METAR KISP 222156Z 13015G26KT 7SM -RA BKN005 OVC011 23/23 A3001 RMK AO2 PK WND
                 14026/2150 RAB13 SLP161 P0001 T02330233 =
2018-07-22 17:28 METAR KISP 222128Z 13016G23KT 10SM -RA BKN008 BKN014 OVC024 24/22 A3001 RMK AO2
                 RAB13 P0000 T02390222 =
2018-07-22 17:05 METAR KISP 222105Z 14012G22KT 10SM FEW009 BKN017 OVC040 25/22 A3001 RMK AO2
                 T02500217 =
2018-07-22 16:56 METAR KISP 222056Z COR 14013G25KT 10SM FEW009 SCT025 BKN100 BKN250 26/22 A3001
                 RMK AO2 SLP161 T02610217 53005 =
2018-07-22 15:56 METAR KISP 221956Z 14016G20KT 10SM FEW008 FEW014 BKN130 BKN250 26/22 A3000 RMK
                 AO2 PK WND 15027/1858 SLP156 T02610217 =
2018-07-22 15:06 METAR KISP 221906Z 15018G27KT 10SM SCT008 BKN011 BKN024 OVC130 26/22 A2999 RMK
                 AO2 PK WND 15027/1858 T02610222 =
2018-07-22 14:56 METAR KISP 221856Z 15016G23KT 10SM FEW009 BKN015 BKN020 OVC130 26/22 A2999 RMK
                 AO2 PK WND 13027/1826 SLP155 T02610222 =
2018-07-22 13:56 METAR KISP 221756Z 15019G29KT 10SM BKN010 BKN020 BKN025 OVC130 27/23 A3000 RMK
                 AO2 PK WND 15031/1746 SLP156 T02670228 10267 20233 51007 =
2018-07-22 12:56 METAR KISP 221656Z 15019G26KT 10SM BKN010 BKN020 OVC026 26/23 A2999 RMK AO2 PK
                 WND 14027/1636 SLP156 T02560228 =
2018-07-22 12:49 METAR KISP 221649Z 15018G25KT 10SM BKN010 BKN020 OVC026 26/23 A2999 RMK AO2 PK
                 WND 14027/1636 T02560228 =
2018-07-22 11:56 METAR KISP 221556Z 15017G22KT 9SM BKN008 OVC014 26/23 A2998 RMK AO2 PK WND
                 15027/1532 SLP153 T02610233 =
2018-07-22 11:52 METAR KISP 221552Z 14016G23KT 10SM BKN008 OVC014 26/23 A2998 RMK AO2 PK WND
                 15027/1532 =

Support USWX by starting your Amazon purchase here.